Barcroft Research Lab Weather observations

Data are for 10 minute period ending at time listed.
 Day   Time   Solar   Ave.   Ave.  Ave.  Vector  Std.   Max.    Baro.    
  of    of     Rad.   Air    Rel.  Wind   Wind   Dev.   Wind   Press.    
Year   Day            Temp.  Hum.  Speed  Dir.   Dir.   Gust            
2016   (PST)  Kw/m2    F      %     mph   deg.   deg.    mph     mb.    
------------------------------------------------------------------------
 122   20:20       0   19.6   100    4.0   123    -99     5.9   640.70  
 122   20:30       0   19.7   100    3.5   108    -99     5.6   640.70  
 122   20:40       0   19.6   100    1.6   109    -99     4.9   640.70  
 122   20:50       0   19.1    99    1.5   281    -99     3.1   640.70  
 122   21:00       0   18.1    99    0.8   278    -99     3.0   640.70  
 122   21:10       0   17.4    99    0.9   335    -99     2.7   640.90  
 122   21:20       0   16.6    98    0.4    40    -99     2.6   640.90  
 122   21:30       0   16.4    99    0.5   357    -99     1.7   640.90  
 122   21:40       0   16.1    99    0.2    40    -99     1.5   640.90  
 122   21:50       0   15.3    98    0.8   300    -99     2.0   640.90  
 122   22:00       0   15.5    99    1.0   237    -99     1.9   640.90  
 122   22:10       0   16.2    99    0.8   241    -99     1.5   641.00  
 122   22:20       0   16.0    99    1.0   253    -99     1.8   641.00  
 122   22:30       0   16.4    99    0.6   230    -99     1.8   641.00  
 122   22:40       0   16.1    99    0.5   208    -99     3.7   641.00  
 122   22:50       0   16.0    99    2.0   222    -99     3.7   641.00  
 122   23:00       0   15.7    99    3.4   226    -99     4.7   641.00  
 122   23:10       0   15.7    99    5.7   229    -99     7.6   640.90  
 122   23:20       0   17.2   100    5.7   219    -99     7.8   640.90  
 122   23:30       0   18.1   100    6.0   214    -99     8.2   640.90  
 122   23:40       0   18.6   100    8.9   219    -99    11.6   640.90  
 122   23:50       0   18.5    99    8.8   231    -99    11.1   640.90  
 123    0:00       0   18.3    99    9.0   252    -99    13.0   640.90  
 123    0:10       0   17.5    98   10.5   256    -99    15.6   641.00  
 123    0:20       0   17.3    99    9.3   256    -99    14.7   641.00  
 123    0:30       0   17.0    98    8.8   254    -99    12.8   641.00  
 123    0:40       0   17.2    99    7.3   254    -99    10.7   641.00  
 123    0:50       0   17.0    98    6.8   258    -99    10.2   641.00  
 123    1:00       0   14.9    95    8.7   269    -99    11.2   641.00  
 123    1:10       0   12.8    94    8.8   266    -99    11.0   641.00  
 123    1:20       0   13.7    93    8.6   269    -99    11.5   641.00  
 123    1:30       0   13.9    92    8.5   276    -99    10.3   641.00  
 123    1:40       0   14.5    88    8.8   265    -99    12.1   641.00  
 123    1:50       0   15.1    83    9.6   266    -99    16.7   641.00  
 123    2:00       0   15.7    81    8.5   259    -99    12.1   641.00  
 123    2:10       0   16.2    77    8.1   260    -99    11.0   641.00  
 123    2:20       0   16.7    76    7.8   255    -99    11.3   641.00  
 123    2:30       0   16.4    75    7.2   255    -99     9.5   641.00  
 123    2:40       0   16.1    76    9.1   240    -99    10.8   641.00  
 123    2:50       0   16.1    77    9.4   243    -99    12.3   641.00  
 123    3:00       0   16.7    75    9.2   245    -99    12.1   641.00  
 123    3:10       0   16.6    73    9.6   245    -99    11.8   641.00  
 123    3:20       0   16.7    72    9.6   252    -99    13.7   641.00  
 123    3:30       0   16.9    72    8.3   255    -99    13.4   641.00  
 123    3:40       0   16.9    74    8.9   256    -99    15.5   641.00  
 123    3:50       0   17.0    78    8.0   251    -99    14.2   641.00  
 123    4:00       0   17.2    77    8.5   255    -99    15.7   641.00  
 123    4:10       0   16.2    75   10.0   265    -99    15.4   641.10  
 123    4:20       0   13.6    73   12.1   266    -99    15.0   641.10  
 123    4:30       0   11.3    76   13.7   265    -99    15.2   641.10  
 123    4:40       0   10.2    77   14.4   267    -99    15.1   641.10  
 123    4:50       2   10.2    76   13.8   269    -99    15.0   641.10  
 123    5:00       7   10.3    77   12.3   272    -99    14.0   641.10  
 123    5:10      24   11.0    80   12.7   266    -99    14.0   641.30  
 123    5:20      50   11.1    79   12.2   269    -99    13.2   641.30  
 123    5:30      82   11.8    79   11.6   270    -99    12.1   641.30  
 123    5:40     120   13.0    77   11.0   274    -99    11.8   641.30  
 123    5:50     155   13.6    77   11.0   272    -99    11.4   641.30  
 123    6:00     186   14.4    76   11.2   277    -99    11.8   641.30  
 123    6:10     221   15.0    74   10.6   285    -99    12.1   642.00  
 123    6:20     257   15.6    74   10.4   287    -99    11.5   642.00  
 123    6:30     293   16.7    73    9.4   286    -99    11.2   642.00  
 123    6:40     331   17.4    72    9.7   286    -99    11.2   642.00  
 123    6:50     367   18.5    70    9.2   292    -99    10.6   642.00  
 123    7:00     404   19.8    68    8.3   288    -99     9.3   642.00  
 123    7:10     441   21.0    67    7.2   290    -99     8.0   642.40  
 123    7:20     477   22.1    65    7.0   289    -99     9.3   642.40  
 123    7:30     512   22.5    66    5.5   302    -99     6.8   642.40  
 123    7:40     549   23.1    68    2.2   334    -99     4.6   642.40  
 123    7:50     584   27.9    75    1.1    78    -99     1.7   642.40  
 123    8:00     620   31.9    70    1.1    72    -99     1.9   642.40  
 123    8:10     655   33.2    65    2.4    63    -99     3.3   642.90  
 123    8:20     690   31.8    66    2.6    56    -99     3.8   642.90  
 123    8:30     723   31.7    71    2.0    48    -99     3.1   642.90  
 123    8:40     761   34.4    67    0.8    92    -99     1.5   642.90  
 123    8:50     675   36.7    65    0.3    61    -99     2.0   642.90  
 123    9:00     407   34.5    68    1.1    76    -99     2.5   642.90  
 123    9:10     558   34.0    68    1.7    65    -99     5.0   643.20  
 123    9:20     534   32.2    67    3.0    82    -99     4.8   643.20  
 123    9:30     460   30.5    72    2.2    57    -99     4.1   643.20  
 123    9:40     641   31.7    70    2.2    99    -99     3.7   643.20  
 123    9:50     627   32.8    61    1.9   120    -99     4.2   643.20  
 123   10:00     718   32.6    58    3.5   141    -99     5.5   643.20  
 123   10:10     682   27.5    69    4.7   164    -99     6.6   643.60  
 123   10:20     875   27.4    77    5.1   154    -99     7.1   643.60  
 123   10:30     897   30.2    73    4.9   141    -99     7.2   643.60  
 123   10:40     611   27.8    79    4.4   172    -99     7.3   643.60  
 123   10:50     481   27.0    79    2.9   179    -99     6.1   643.60  
 123   11:00     304   24.9    90    3.1   180    -99     7.2   643.60  
 123   11:10     379   25.6    88    2.4   184    -99     5.5   643.80  
 123   11:20     460   26.7    87    2.2   219    -99     4.1   643.80  
 123   11:30     590   27.1    85    3.3   217    -99     6.6   643.80  
 123   11:40     851   28.5    81    3.4   253    -99     6.1   643.80  
 123   11:50     963   32.2    73    1.7   264    -99     4.3   643.80  
 123   12:00     716   31.9    71    3.7   307    -99     5.1   643.80  
 123   12:10     686   30.2    76    3.7   287    -99     5.3   643.80  
 123   12:20     521   29.3    79    2.6   249    -99     4.7   643.80  
 123   12:30     362   28.5    82    1.4   236    -99     2.9   643.80  
 123   12:40     286   28.1    83    1.3   236    -99     3.7   643.80  
 123   12:50     370   25.8    87    3.9   251    -99     6.1   643.80  
 123   13:00     541   27.0    86    2.0   249    -99     4.8   643.80  
 123   13:10     614   29.6    83    1.6   195    -99     3.9   644.00  
 123   13:20     540   30.6    81    4.1   131    -99     6.5   644.00  
 123   13:30     456   28.3    84    5.7   137    -99     8.5   644.00  
 123   13:40     685   28.0    87    6.6   132    -99     9.8   644.00  
 123   13:50     888   29.0    84    4.0   158    -99     9.2   644.00  
 123   14:00     904   30.5    79    2.8   259    -99     4.0   644.00  
 123   14:10     863   31.6    72    2.3   228    -99     3.7   643.90  
 123   14:20     827   31.5    71    2.5   197    -99     5.5   643.90  
 123   14:30     782   31.6    72    2.5   223    -99     3.6   643.90  
 123   14:40     765   32.7    70    1.6   196    -99     3.0   643.90  
 123   14:50     757   32.5    69    2.2   201    -99     4.9   643.90  
 123   15:00     601   32.2    68    2.6   215    -99     4.7   643.90  
 123   15:10     695   31.6    71    2.1   196    -99     5.0   643.90  
 123   15:20     779   31.7    70    3.3   166    -99     5.3   643.90  
 123   15:30     362   31.2    78    6.8   116    -99     9.2   643.90  
 123   15:40     215   28.5    86    4.7   126    -99     7.7   643.90  
 123   15:50     182   27.1    90    4.2   139    -99     6.6   643.90  
 123   16:00     176   25.4    95    1.7   164    -99     3.8   643.90  
 123   16:10     204   25.9    94    0.6   170    -99     1.4   643.90  
 123   16:20     261   27.8    89    0.8   136    -99     3.9   643.90  
 123   16:30     159   27.9    88    2.9   129    -99     4.2   643.90  
 123   16:40     117   26.4    91    2.5   150    -99     3.8   643.90  
 123   16:50     103   24.9    96    0.8   165    -99     2.0   643.90  
 123   17:00      95   25.0    96    1.1   265    -99     2.6   643.90  
 123   17:10     115   25.2    94    0.4   211    -99     2.0   643.90  
 123   17:20     110   25.7    92    1.1   256    -99     2.5   643.90  
 123   17:30      91   25.2    92    0.9   240    -99     2.6   643.90  
 123   17:40      64   25.1    89    0.9   289    -99     1.9   643.90  
 123   17:50      58   25.2    86    0.5   129    -99     2.1   643.90  
 123   18:00      54   25.0    86    2.5   138    -99     4.1   643.90  
 123   18:10      43   24.4    90    0.3   128    -99     1.8   643.90  
 123   18:20      25   23.7    89    0.4   224    -99     1.4   643.90  
 123   18:30       9   22.8    90    1.3   227    -99     2.3   643.90  
 123   18:40       4   21.9    92    0.8   224    -99     2.0   643.90  
 123   18:50       2   21.1    92    0.2   251    -99     1.5   643.90  
 123   19:00       0   20.4    95    0.1   225    -99     1.4   643.90  
 123   19:10       0   19.7    95    0.6   255    -99     1.9   644.20  
 123   19:20       0   19.8    96    1.0   202    -99     4.0   644.20  
 123   19:30       0   19.7    96    1.6   235    -99     2.9   644.20  
 123   19:40       0   19.5    96    1.4   235    -99     2.9   644.20  
 123   19:50       0   19.3    98    1.3   237    -99     2.7   644.20  
 123   20:00       0   19.6   100    1.2   242    -99     2.9   644.20  
 123   20:10       0   19.6   100    1.9   247    -99     3.0   644.50  

Return to Barcroft Research Lab graphs page.


Western Regional Climate Center,wrcc@dri.edu